Time;durP1;ratioP1;P1;durP2;ratioP2;P2;SDS_P1;SDS_P2;PMS_P1;PMS_P2;Temp;Humidity;BMP_temperature;BMP_pressure;BME280_temperature;BME280_humidity;BME280_pressure;Samples;Min_cycle;Max_cycle;Signal;HPM_P1;HPM_P2
2023/08/30 00:00:22;;;;;;;8.32;7.50;;;;;;;;;;5053901;28;20070;-58
2023/08/30 00:02:48;;;;;;;7.85;7.20;;;;;;;;;;5054152;28;20025;-58
2023/08/30 00:05:14;;;;;;;9.00;8.20;;;;;;;;;;5053445;28;20082;-58
2023/08/30 00:07:40;;;;;;;7.28;6.57;;;;;;;;;;5053284;28;20028;-58
2023/08/30 00:10:07;;;;;;;9.13;8.23;;;;;;;;;;5053606;28;20029;-58
2023/08/30 00:12:33;;;;;;;8.93;8.02;;;;;;;;;;5053543;28;20052;-58
2023/08/30 00:14:59;;;;;;;7.93;7.13;;;;;;;;;;5054048;28;20032;-58
2023/08/30 00:17:25;;;;;;;9.50;8.60;;;;;;;;;;5053161;28;20478;-58
2023/08/30 00:19:52;;;;;;;11.35;7.40;;;;;;;;;;5054285;28;20459;-58
2023/08/30 00:22:18;;;;;;;8.98;8.07;;;;;;;;;;5053921;28;20029;-58
2023/08/30 00:24:47;;;;;;;9.00;8.10;;;;;;;;;;5053285;28;20045;-58
2023/08/30 00:27:13;;;;;;;8.52;7.65;;;;;;;;;;5053610;28;20056;-58
2023/08/30 00:29:39;;;;;;;9.20;8.30;;;;;;;;;;5054538;28;20408;-58
2023/08/30 00:32:05;;;;;;;8.35;7.55;;;;;;;;;;5057959;28;20455;-58
2023/08/30 00:34:31;;;;;;;10.10;8.43;;;;;;;;;;5057071;28;20029;-58
2023/08/30 00:36:57;;;;;;;11.90;7.90;;;;;;;;;;5057705;28;20102;-58
2023/08/30 00:39:23;;;;;;;9.82;8.93;;;;;;;;;;5057543;28;20021;-58
2023/08/30 00:41:49;;;;;;;7.78;7.00;;;;;;;;;;5057483;28;20116;-58
2023/08/30 00:44:15;;;;;;;9.55;8.65;;;;;;;;;;5057077;28;20029;-58
2023/08/30 00:46:41;;;;;;;7.75;7.05;;;;;;;;;;5057658;28;20033;-58
2023/08/30 00:49:07;;;;;;;9.23;8.40;;;;;;;;;;5057684;28;20485;-58
2023/08/30 00:51:33;;;;;;;8.60;7.80;;;;;;;;;;5056727;28;20028;-58
2023/08/30 00:54:00;;;;;;;9.98;9.07;;;;;;;;;;5057020;28;20037;-58
2023/08/30 00:56:27;;;;;;;9.05;8.20;;;;;;;;;;5056629;28;20028;-58
2023/08/30 00:58:53;;;;;;;8.57;7.72;;;;;;;;;;5056873;28;20393;-58
2023/08/30 01:01:20;;;;;;;9.38;8.57;;;;;;;;;;5057093;28;20366;-58
2023/08/30 01:03:46;;;;;;;8.52;7.72;;;;;;;;;;5056930;28;20355;-58
2023/08/30 01:06:13;;;;;;;9.05;8.18;;;;;;;;;;5056728;28;20086;-58
2023/08/30 01:08:39;;;;;;;10.38;8.25;;;;;;;;;;5056697;28;20115;-58
2023/08/30 01:11:13;;;;;;;9.55;8.30;;;;;;;;;;5057236;28;20056;-59
2023/08/30 01:13:42;;;;;;;8.93;8.02;;;;;;;;;;5056321;28;20036;-58
2023/08/30 01:16:08;;;;;;;8.65;7.82;;;;;;;;;;5056572;28;20025;-59
2023/08/30 01:18:36;;;;;;;11.02;7.55;;;;;;;;;;5056567;28;20021;-58
2023/08/30 01:21:03;;;;;;;8.13;7.40;;;;;;;;;;5056547;28;20025;-59
2023/08/30 01:23:40;;;;;;;8.52;7.65;;;;;;;;;;5056368;28;20128;-59
2023/08/30 01:26:27;;;;;;;9.32;8.52;;;;;;;;;;5056901;28;20029;-58
2023/08/30 01:28:53;;;;;;;8.73;7.82;;;;;;;;;;5056593;28;20078;-58
2023/08/30 01:31:19;;;;;;;9.73;8.82;;;;;;;;;;5056763;28;20474;-58
2023/08/30 01:33:46;;;;;;;8.98;8.20;;;;;;;;;;5056283;28;20035;-59
2023/08/30 01:36:13;;;;;;;9.52;8.63;;;;;;;;;;5056345;28;20045;-58
2023/08/30 01:38:39;;;;;;;8.68;7.88;;;;;;;;;;5056108;28;20542;-58
2023/08/30 01:41:05;;;;;;;9.18;8.27;;;;;;;;;;5056921;28;20051;-58
2023/08/30 01:43:32;;;;;;;10.13;9.23;;;;;;;;;;5055831;28;20029;-58
2023/08/30 01:46:02;;;;;;;8.75;8.05;;;;;;;;;;5056733;28;20029;-58
2023/08/30 01:48:29;;;;;;;10.13;8.45;;;;;;;;;;5056296;28;20029;-58
2023/08/30 01:50:58;;;;;;;9.40;8.50;;;;;;;;;;5056427;28;20108;-58
2023/08/30 01:53:24;;;;;;;9.50;8.60;;;;;;;;;;5056626;28;20033;-58
2023/08/30 01:55:50;;;;;;;10.10;9.20;;;;;;;;;;5056050;28;20104;-58
2023/08/30 01:58:16;;;;;;;9.20;8.27;;;;;;;;;;5056586;28;20412;-59
2023/08/30 02:00:42;;;;;;;9.70;8.70;;;;;;;;;;5055803;28;20344;-58
2023/08/30 02:03:12;;;;;;;8.43;7.72;;;;;;;;;;5055582;28;20033;-58
2023/08/30 02:05:43;;;;;;;9.48;8.63;;;;;;;;;;5055605;28;20036;-58
2023/08/30 02:08:09;;;;;;;;;;;;;;;;;;5056591;28;20033;-58
2023/08/30 02:10:36;;;;;;;10.70;8.30;;;;;;;;;;5055557;28;19991;-58
2023/08/30 02:13:02;;;;;;;9.00;8.20;;;;;;;;;;5055511;28;20029;-59
2023/08/30 02:15:30;;;;;;;9.02;8.23;;;;;;;;;;5056014;28;20116;-59
2023/08/30 02:17:56;;;;;;;9.82;8.85;;;;;;;;;;5055338;28;20053;-58
2023/08/30 02:20:22;;;;;;;10.75;8.60;;;;;;;;;;5055949;28;20035;-59
2023/08/30 02:22:48;;;;;;;8.50;7.63;;;;;;;;;;5055856;28;20040;-58
2023/08/30 02:25:14;;;;;;;9.80;8.90;;;;;;;;;;5055245;28;20463;-59
2023/08/30 02:27:40;;;;;;;9.20;8.32;;;;;;;;;;5056038;28;20025;-58
2023/08/30 02:30:06;;;;;;;9.20;8.30;;;;;;;;;;5055737;28;20036;-58
2023/08/30 02:32:32;;;;;;;9.68;8.77;;;;;;;;;;5055051;28;20034;-58
2023/08/30 02:34:58;;;;;;;9.40;8.35;;;;;;;;;;5055361;28;20167;-58
2023/08/30 02:37:24;;;;;;;10.43;9.35;;;;;;;;;;5056181;28;20486;-58
2023/08/30 02:39:50;;;;;;;8.13;7.43;;;;;;;;;;5055588;28;20031;-58
2023/08/30 02:42:16;;;;;;;8.20;7.50;;;;;;;;;;5055144;28;20025;-58
2023/08/30 02:44:42;;;;;;;8.60;7.80;;;;;;;;;;5055573;28;20091;-58
2023/08/30 02:47:08;;;;;;;9.77;8.88;;;;;;;;;;5055315;28;20027;-58
2023/08/30 02:49:34;;;;;;;8.60;7.82;;;;;;;;;;5054834;28;20108;-58
2023/08/30 02:52:00;;;;;;;8.75;7.85;;;;;;;;;;5054513;28;20057;-58
2023/08/30 02:54:26;;;;;;;8.68;7.88;;;;;;;;;;5054610;28;20031;-58
2023/08/30 02:56:52;;;;;;;8.45;7.65;;;;;;;;;;5055191;28;20481;-58
2023/08/30 02:59:18;;;;;;;8.85;8.07;;;;;;;;;;5055153;28;20040;-58
2023/08/30 03:01:44;;;;;;;8.10;7.40;;;;;;;;;;5054616;28;20088;-59
2023/08/30 03:04:10;;;;;;;8.05;7.35;;;;;;;;;;5054396;28;20101;-58
2023/08/30 03:06:36;;;;;;;9.52;8.63;;;;;;;;;;5054445;28;20028;-58
2023/08/30 03:09:06;;;;;;;8.95;8.05;;;;;;;;;;5054956;28;20029;-58
2023/08/30 03:11:32;;;;;;;10.73;9.20;;;;;;;;;;5054724;28;20106;-58
2023/08/30 03:13:58;;;;;;;8.13;7.32;;;;;;;;;;5054408;28;20035;-58
2023/08/30 03:16:24;;;;;;;8.40;7.60;;;;;;;;;;5054784;28;20105;-58
2023/08/30 03:18:50;;;;;;;11.02;8.18;;;;;;;;;;5054777;28;20045;-58
2023/08/30 03:21:16;;;;;;;9.18;8.27;;;;;;;;;;5054202;28;20031;-58
2023/08/30 03:23:42;;;;;;;7.80;7.10;;;;;;;;;;5054112;28;20124;-59
2023/08/30 03:26:16;;;;;;;8.77;7.88;;;;;;;;;;5054617;28;20020;-58
2023/08/30 03:28:42;;;;;;;8.40;7.57;;;;;;;;;;5054623;28;20057;-59
2023/08/30 03:31:18;;;;;;;8.88;8.07;;;;;;;;;;5054370;28;20017;-58
2023/08/30 03:33:44;;;;;;;9.02;8.13;;;;;;;;;;5053997;28;20055;-58
2023/08/30 03:36:11;;;;;;;8.93;8.02;;;;;;;;;;5053809;28;20128;-58
2023/08/30 03:38:37;;;;;;;9.43;8.13;;;;;;;;;;5054162;28;20036;-58
2023/08/30 03:41:06;;;;;;;8.25;7.45;;;;;;;;;;5053863;28;20029;-58
2023/08/30 03:43:33;;;;;;;7.93;7.18;;;;;;;;;;5053653;28;20037;-58
2023/08/30 03:46:05;;;;;;;8.63;7.82;;;;;;;;;;5053784;28;20036;-58
2023/08/30 03:48:31;;;;;;;7.72;7.07;;;;;;;;;;5053755;28;20379;-58
2023/08/30 03:50:58;;;;;;;8.65;7.85;;;;;;;;;;5054034;28;20025;-58
2023/08/30 03:53:24;;;;;;;9.00;8.13;;;;;;;;;;5053722;28;20051;-58
2023/08/30 03:55:50;;;;;;;9.27;8.38;;;;;;;;;;5053655;28;20031;-58
2023/08/30 03:58:16;;;;;;;8.90;8.10;;;;;;;;;;5053886;28;20021;-58
2023/08/30 04:00:42;;;;;;;9.90;8.90;;;;;;;;;;5053312;28;20478;-58
2023/08/30 04:03:09;;;;;;;11.00;8.20;;;;;;;;;;5053856;28;20025;-58
2023/08/30 04:05:35;;;;;;;9.35;8.15;;;;;;;;;;5053331;28;20041;-59
2023/08/30 04:08:02;;;;;;;9.50;8.60;;;;;;;;;;5053482;28;20078;-59
2023/08/30 04:10:28;;;;;;;8.98;8.10;;;;;;;;;;5053597;28;20029;-59
2023/08/30 04:12:54;;;;;;;10.07;9.10;;;;;;;;;;5053565;28;20100;-59
2023/08/30 04:15:19;;;;;;;9.73;8.82;;;;;;;;;;5053508;28;20459;-59
2023/08/30 04:17:46;;;;;;;9.18;8.27;;;;;;;;;;5054245;28;20031;-59
2023/08/30 04:20:12;;;;;;;10.30;9.27;;;;;;;;;;5054060;28;20125;-59
2023/08/30 04:22:37;;;;;;;8.80;7.97;;;;;;;;;;5053502;28;20025;-59
2023/08/30 04:25:04;;;;;;;9.80;8.80;;;;;;;;;;5053385;28;20040;-59
2023/08/30 04:27:30;;;;;;;9.13;8.32;;;;;;;;;;5053677;28;20459;-59
2023/08/30 04:29:56;;;;;;;10.65;7.85;;;;;;;;;;5053401;28;20021;-59
2023/08/30 04:32:22;;;;;;;10.30;9.30;;;;;;;;;;5053366;28;20044;-59
2023/08/30 04:34:48;;;;;;;9.80;8.90;;;;;;;;;;5053288;28;20112;-59
2023/08/30 04:37:15;;;;;;;9.48;8.57;;;;;;;;;;5053942;28;20183;-59
2023/08/30 04:39:41;;;;;;;10.40;9.50;;;;;;;;;;5053808;28;20375;-59
2023/08/30 04:42:07;;;;;;;11.13;9.98;;;;;;;;;;5053194;28;20025;-59
2023/08/30 04:44:33;;;;;;;10.65;9.60;;;;;;;;;;5053458;28;20451;-59
2023/08/30 04:46:59;;;;;;;11.40;9.27;;;;;;;;;;5054022;28;20025;-59
2023/08/30 04:49:25;;;;;;;10.65;9.70;;;;;;;;;;5054059;28;20354;-59
2023/08/30 04:51:51;;;;;;;10.80;9.70;;;;;;;;;;5053803;28;20442;-59
2023/08/30 04:54:17;;;;;;;11.65;10.00;;;;;;;;;;5053196;28;20029;-59
2023/08/30 04:56:43;;;;;;;10.68;9.68;;;;;;;;;;5053727;28;20105;-59
2023/08/30 04:59:09;;;;;;;10.80;9.73;;;;;;;;;;5053730;28;20029;-59
2023/08/30 05:01:35;;;;;;;10.57;9.48;;;;;;;;;;5053044;28;20082;-59
2023/08/30 05:04:02;;;;;;;10.20;9.20;;;;;;;;;;5053004;28;20454;-59
2023/08/30 05:06:28;;;;;;;10.07;8.65;;;;;;;;;;5052811;28;20021;-59
2023/08/30 05:08:54;;;;;;;9.65;8.70;;;;;;;;;;5053049;28;20017;-59
2023/08/30 05:11:23;;;;;;;9.80;8.90;;;;;;;;;;5053293;28;20025;-59
2023/08/30 05:13:49;;;;;;;10.45;9.45;;;;;;;;;;5052710;28;20103;-59
2023/08/30 05:16:17;;;;;;;9.82;8.90;;;;;;;;;;5054389;28;20048;-59
2023/08/30 05:18:43;;;;;;;9.25;8.45;;;;;;;;;;5056706;28;20036;-59
2023/08/30 05:21:09;;;;;;;10.63;9.52;;;;;;;;;;5056688;28;20025;-60
2023/08/30 05:23:35;;;;;;;9.95;8.95;;;;;;;;;;5056447;28;20167;-59
2023/08/30 05:26:01;;;;;;;9.80;8.93;;;;;;;;;;5056442;28;20072;-59
2023/08/30 05:28:27;;;;;;;9.60;8.80;;;;;;;;;;5056971;28;20028;-59
2023/08/30 05:30:53;;;;;;;10.52;9.52;;;;;;;;;;5057106;28;20465;-59
2023/08/30 05:33:19;;;;;;;11.25;10.15;;;;;;;;;;5056059;28;20021;-59
2023/08/30 05:35:45;;;;;;;11.38;9.27;;;;;;;;;;5056244;28;20048;-60
2023/08/30 05:38:11;;;;;;;10.15;9.30;;;;;;;;;;5056833;28;20020;-59
2023/08/30 05:40:42;;;;;;;9.45;8.55;;;;;;;;;;5056811;28;20048;-59
2023/08/30 05:43:08;;;;;;;10.20;9.30;;;;;;;;;;5056361;28;20525;-59
2023/08/30 05:45:34;;;;;;;9.55;8.65;;;;;;;;;;5056051;28;20041;-59
2023/08/30 05:48:00;;;;;;;10.88;9.80;;;;;;;;;;5056609;28;20514;-59
2023/08/30 05:50:26;;;;;;;10.43;9.50;;;;;;;;;;5056605;28;20492;-59
2023/08/30 05:52:52;;;;;;;10.88;9.82;;;;;;;;;;5055972;28;20033;-59
2023/08/30 05:55:17;;;;;;;9.82;8.93;;;;;;;;;;5056456;28;20029;-59
2023/08/30 05:57:43;;;;;;;11.73;9.60;;;;;;;;;;5056653;28;20123;-59
2023/08/30 06:00:10;;;;;;;9.35;8.45;;;;;;;;;;5056354;28;20471;-59
2023/08/30 06:02:36;;;;;;;11.10;10.15;;;;;;;;;;5055505;28;20024;-59
2023/08/30 06:05:02;;;;;;;12.05;9.73;;;;;;;;;;5055930;28;20037;-59
2023/08/30 06:07:28;;;;;;;10.60;9.65;;;;;;;;;;5056158;28;20025;-59
2023/08/30 06:09:54;;;;;;;11.48;10.45;;;;;;;;;;5055902;28;20021;-59
2023/08/30 06:12:20;;;;;;;11.25;10.23;;;;;;;;;;5056113;28;20070;-59
2023/08/30 06:14:51;;;;;;;11.77;10.65;;;;;;;;;;5056083;28;20155;-59
2023/08/30 06:17:18;;;;;;;10.15;9.25;;;;;;;;;;5055573;28;20057;-59
2023/08/30 06:19:44;;;;;;;11.15;10.18;;;;;;;;;;5055974;28;20474;-59
2023/08/30 06:22:10;;;;;;;10.73;9.73;;;;;;;;;;5055176;28;20029;-59
2023/08/30 06:24:36;;;;;;;11.30;10.18;;;;;;;;;;5055113;28;20033;-59
2023/08/30 06:27:01;;;;;;;10.88;9.80;;;;;;;;;;5055196;28;20083;-59
2023/08/30 06:29:27;;;;;;;10.10;9.18;;;;;;;;;;5055543;28;20075;-59
2023/08/30 06:31:53;;;;;;;10.10;9.20;;;;;;;;;;5055698;28;20057;-59
2023/08/30 06:34:19;;;;;;;11.23;10.18;;;;;;;;;;5055105;28;20052;-59
2023/08/30 06:36:46;;;;;;;10.43;9.43;;;;;;;;;;5054831;28;20053;-59
2023/08/30 06:39:11;;;;;;;10.18;9.20;;;;;;;;;;5055704;28;20048;-59
2023/08/30 06:41:37;;;;;;;9.57;8.65;;;;;;;;;;5055449;28;20392;-59
2023/08/30 06:44:03;;;;;;;10.05;9.05;;;;;;;;;;5054800;28;20382;-59
2023/08/30 06:46:29;;;;;;;9.93;9.00;;;;;;;;;;5054937;28;20043;-59
2023/08/30 06:48:55;;;;;;;10.45;9.45;;;;;;;;;;5054680;28;20025;-59
2023/08/30 06:51:21;;;;;;;10.13;9.18;;;;;;;;;;5054882;28;20029;-59
2023/08/30 06:53:47;;;;;;;10.40;9.38;;;;;;;;;;5054829;28;20067;-59
2023/08/30 06:56:16;;;;;;;9.93;9.02;;;;;;;;;;5055037;28;20171;-59
2023/08/30 06:58:42;;;;;;;9.60;8.68;;;;;;;;;;5054724;28;20368;-61
2023/08/30 07:01:08;;;;;;;10.40;9.30;;;;;;;;;;5055217;28;20025;-59
2023/08/30 07:03:34;;;;;;;9.40;8.50;;;;;;;;;;5054564;28;20040;-58
2023/08/30 07:06:00;;;;;;;10.23;9.32;;;;;;;;;;5055111;28;20025;-58
2023/08/30 07:08:26;;;;;;;8.77;7.97;;;;;;;;;;5054508;28;20029;-58
2023/08/30 07:10:52;;;;;;;8.40;7.60;;;;;;;;;;5055328;28;20064;-60
2023/08/30 07:13:18;;;;;;;8.88;8.02;;;;;;;;;;5054531;28;20025;-58
2023/08/30 07:15:44;;;;;;;8.45;7.65;;;;;;;;;;5054954;28;20025;-59
2023/08/30 07:18:10;;;;;;;10.57;9.57;;;;;;;;;;5054348;28;20033;-59
2023/08/30 07:20:36;;;;;;;9.80;8.70;;;;;;;;;;5055154;28;20029;-59
2023/08/30 07:23:02;;;;;;;10.05;8.38;;;;;;;;;;5054268;28;20036;-59
2023/08/30 07:25:30;;;;;;;8.90;7.97;;;;;;;;;;5054655;28;20124;-60
2023/08/30 07:27:56;;;;;;;8.32;7.53;;;;;;;;;;5054760;28;20367;-59
2023/08/30 07:30:22;;;;;;;8.75;7.95;;;;;;;;;;5054425;28;20033;-61
2023/08/30 07:32:48;;;;;;;7.82;7.18;;;;;;;;;;5053787;28;20558;-60
2023/08/30 07:35:14;;;;;;;8.68;7.75;;;;;;;;;;5054146;28;20057;-59
2023/08/30 07:37:40;;;;;;;7.55;6.75;;;;;;;;;;5054425;28;20064;-60
2023/08/30 07:40:07;;;;;;;6.75;6.07;;;;;;;;;;5054792;28;20033;-60
2023/08/30 07:42:33;;;;;;;6.97;6.28;;;;;;;;;;5053793;28;20029;-60
2023/08/30 07:44:58;;;;;;;8.55;7.32;;;;;;;;;;5054403;28;20366;-60
2023/08/30 07:47:24;;;;;;;7.85;6.97;;;;;;;;;;5053808;28;20398;-60
2023/08/30 07:49:50;;;;;;;8.02;7.25;;;;;;;;;;5054719;28;20352;-60
2023/08/30 07:52:16;;;;;;;7.50;6.43;;;;;;;;;;5054340;28;20417;-60
2023/08/30 07:54:42;;;;;;;8.02;7.07;;;;;;;;;;5053802;28;20032;-60
2023/08/30 07:57:08;;;;;;;7.68;6.97;;;;;;;;;;5053708;28;20082;-60
2023/08/30 07:59:35;;;;;;;7.68;6.93;;;;;;;;;;5053966;28;20112;-60
2023/08/30 08:02:02;;;;;;;8.10;7.32;;;;;;;;;;5054075;28;20047;-60
2023/08/30 08:04:28;;;;;;;8.02;7.32;;;;;;;;;;5053492;28;20029;-60
2023/08/30 08:06:54;;;;;;;8.30;7.32;;;;;;;;;;5053298;28;20032;-60
2023/08/30 08:09:21;;;;;;;7.05;6.35;;;;;;;;;;5053984;28;20025;-60
2023/08/30 08:11:47;;;;;;;8.70;6.63;;;;;;;;;;5054069;28;20106;-60
2023/08/30 08:14:13;;;;;;;8.82;6.45;;;;;;;;;;5053846;28;20455;-60
2023/08/30 08:16:39;;;;;;;6.63;6.00;;;;;;;;;;5053749;28;20083;-60
2023/08/30 08:19:06;;;;;;;6.32;5.72;;;;;;;;;;5053759;28;20025;-60
2023/08/30 08:21:32;;;;;;;6.47;5.88;;;;;;;;;;5053477;28;20029;-60
2023/08/30 08:23:58;;;;;;;6.82;6.18;;;;;;;;;;5053341;28;20491;-60
2023/08/30 08:26:25;;;;;;;6.72;6.07;;;;;;;;;;5053641;28;20059;-60
2023/08/30 08:28:51;;;;;;;6.38;5.65;;;;;;;;;;5054217;28;20029;-60
2023/08/30 08:31:17;;;;;;;6.40;5.75;;;;;;;;;;5053350;28;20036;-60
2023/08/30 08:33:43;;;;;;;6.13;5.53;;;;;;;;;;5053068;28;20071;-60
2023/08/30 08:36:10;;;;;;;6.95;5.57;;;;;;;;;;5053911;28;20116;-60
2023/08/30 08:38:38;;;;;;;5.97;5.28;;;;;;;;;;5053782;28;20029;-60
2023/08/30 08:41:08;;;;;;;6.65;5.95;;;;;;;;;;5053851;28;20017;-60
2023/08/30 08:43:36;;;;;;;5.95;5.35;;;;;;;;;;5053432;28;20025;-60
2023/08/30 08:46:02;;;;;;;5.78;5.28;;;;;;;;;;5052929;28;20470;-60
2023/08/30 08:48:29;;;;;;;6.30;5.10;;;;;;;;;;5053557;28;20079;-60
2023/08/30 08:50:56;;;;;;;4.53;4.13;;;;;;;;;;5054723;28;20021;-60
2023/08/30 08:53:23;;;;;;;6.00;4.78;;;;;;;;;;5056944;28;20025;-60
2023/08/30 08:55:49;;;;;;;7.03;5.45;;;;;;;;;;5057053;28;20025;-60
2023/08/30 08:58:15;;;;;;;5.22;4.63;;;;;;;;;;5056993;28;20091;-60
2023/08/30 09:00:43;;;;;;;5.47;4.97;;;;;;;;;;5057568;28;20029;-60
2023/08/30 09:03:09;;;;;;;5.28;4.50;;;;;;;;;;5057094;28;20028;-60
2023/08/30 09:05:37;;;;;;;5.32;4.82;;;;;;;;;;5056601;28;20037;-60
2023/08/30 09:08:04;;;;;;;6.00;5.28;;;;;;;;;;5057658;28;20328;-60
2023/08/30 09:10:32;;;;;;;4.75;4.28;;;;;;;;;;5056608;28;20108;-60
2023/08/30 09:12:58;;;;;;;5.13;4.18;;;;;;;;;;5057225;28;20025;-60
2023/08/30 09:15:31;;;;;;;7.97;3.90;;;;;;;;;;5056671;28;20040;-60
2023/08/30 09:17:57;;;;;;;6.28;4.63;;;;;;;;;;5057265;28;20344;-60
2023/08/30 09:20:23;;;;;;;5.40;4.85;;;;;;;;;;5057212;28;20156;-60
2023/08/30 09:22:50;;;;;;;6.18;4.72;;;;;;;;;;5056545;28;20028;-60
2023/08/30 09:25:24;;;;;;;3.58;3.20;;;;;;;;;;5056868;28;20044;-60
2023/08/30 09:27:50;;;;;;;5.10;4.22;;;;;;;;;;5057074;28;20021;-60
2023/08/30 09:30:21;;;;;;;3.42;3.13;;;;;;;;;;5057295;28;20116;-60
2023/08/30 09:32:47;;;;;;;4.43;4.03;;;;;;;;;;5056936;28;20036;-60
2023/08/30 09:35:13;;;;;;;3.90;3.40;;;;;;;;;;5056370;28;20037;-59
2023/08/30 09:37:39;;;;;;;8.68;3.78;;;;;;;;;;5056880;28;20108;-60
2023/08/30 09:40:07;;;;;;;3.45;3.00;;;;;;;;;;5056832;28;20021;-60
2023/08/30 09:42:33;;;;;;;4.30;3.10;;;;;;;;;;5056098;28;20029;-60
2023/08/30 09:44:59;;;;;;;3.63;2.88;;;;;;;;;;5055777;28;20120;-60
2023/08/30 09:47:28;;;;;;;3.58;3.25;;;;;;;;;;5056093;28;20024;-60
2023/08/30 09:49:55;;;;;;;3.33;2.92;;;;;;;;;;5056293;28;20021;-60
2023/08/30 09:52:23;;;;;;;3.22;2.88;;;;;;;;;;5056426;28;20024;-60
2023/08/30 09:54:50;;;;;;;3.60;3.10;;;;;;;;;;5056447;28;20065;-60
2023/08/30 09:57:16;;;;;;;3.80;3.40;;;;;;;;;;5055620;28;20095;-60
2023/08/30 09:59:43;;;;;;;3.97;3.22;;;;;;;;;;5056743;28;20155;-60
2023/08/30 10:02:09;;;;;;;4.45;3.10;;;;;;;;;;5054817;28;20048;-60
2023/08/30 10:04:35;;;;;;;3.50;2.60;;;;;;;;;;5055527;28;20036;-60
2023/08/30 10:07:04;;;;;;;3.40;3.10;;;;;;;;;;5055786;28;20076;-60
2023/08/30 10:09:30;;;;;;;3.40;2.72;;;;;;;;;;5056245;28;20021;-60
2023/08/30 10:11:58;;;;;;;3.42;2.38;;;;;;;;;;5055635;28;20021;-60
2023/08/30 10:14:24;;;;;;;3.42;3.13;;;;;;;;;;5055961;28;20029;-60
2023/08/30 10:16:51;;;;;;;4.82;2.10;;;;;;;;;;5055951;28;20028;-60
2023/08/30 10:19:22;;;;;;;3.83;2.78;;;;;;;;;;5056050;28;20032;-60
2023/08/30 10:21:51;;;;;;;5.93;2.50;;;;;;;;;;5055840;28;20426;-60
2023/08/30 10:24:19;;;;;;;2.83;2.45;;;;;;;;;;5055060;28;20033;-60
2023/08/30 10:26:46;;;;;;;4.28;2.80;;;;;;;;;;5055661;28;20025;-60
2023/08/30 10:29:13;;;;;;;2.63;2.00;;;;;;;;;;5055541;28;20130;-60
2023/08/30 10:31:40;;;;;;;2.97;2.13;;;;;;;;;;5054869;28;20475;-60
2023/08/30 10:34:14;;;;;;;2.83;1.92;;;;;;;;;;5054991;28;20091;-60
2023/08/30 10:36:40;;;;;;;3.60;2.20;;;;;;;;;;5055188;28;20052;-60
2023/08/30 10:39:11;;;;;;;2.78;2.33;;;;;;;;;;5055780;28;20328;-60
2023/08/30 10:41:37;;;;;;;2.58;2.30;;;;;;;;;;5054787;28;20020;-60
2023/08/30 10:44:04;;;;;;;2.95;2.15;;;;;;;;;;5054919;28;20119;-60
2023/08/30 10:46:34;;;;;;;2.55;2.25;;;;;;;;;;5055260;28;20036;-60
2023/08/30 10:49:09;;;;;;;2.95;2.08;;;;;;;;;;5054993;28;20029;-60
2023/08/30 10:51:37;;;;;;;4.20;2.10;;;;;;;;;;5055408;28;20367;-60
2023/08/30 10:54:10;;;;;;;1.92;1.48;;;;;;;;;;5055192;28;20029;-60
2023/08/30 10:56:36;;;;;;;3.50;2.00;;;;;;;;;;5055298;28;20036;-60
2023/08/30 10:59:05;;;;;;;2.90;1.95;;;;;;;;;;5054969;28;20459;-60
2023/08/30 11:01:32;;;;;;;2.50;1.80;;;;;;;;;;5055242;28;20390;-60
2023/08/30 11:03:58;;;;;;;2.95;2.15;;;;;;;;;;5054638;28;20344;-60
2023/08/30 11:06:24;;;;;;;2.83;1.92;;;;;;;;;;5055224;28;20454;-60
2023/08/30 11:08:50;;;;;;;2.40;1.90;;;;;;;;;;5055155;28;20017;-60
2023/08/30 11:11:16;;;;;;;2.63;1.88;;;;;;;;;;5055130;28;20447;-60
2023/08/30 11:13:42;;;;;;;3.38;2.28;;;;;;;;;;5053773;28;20475;-60
2023/08/30 11:16:09;;;;;;;2.55;1.90;;;;;;;;;;5054375;28;20025;-60
2023/08/30 11:18:39;;;;;;;2.70;2.10;;;;;;;;;;5054365;28;20025;-60
2023/08/30 11:21:06;;;;;;;4.10;1.77;;;;;;;;;;5054951;28;20103;-60
2023/08/30 11:23:32;;;;;;;2.60;2.15;;;;;;;;;;5054410;28;20064;-60
2023/08/30 11:25:58;;;;;;;2.60;2.30;;;;;;;;;;5054157;28;20029;-60
2023/08/30 11:28:25;;;;;;;3.65;2.38;;;;;;;;;;5054596;28;20028;-60
2023/08/30 11:30:53;;;;;;;2.50;1.80;;;;;;;;;;5054669;28;20025;-60
2023/08/30 11:33:19;;;;;;;2.67;1.88;;;;;;;;;;5054101;28;20017;-60
2023/08/30 11:35:46;;;;;;;3.53;2.05;;;;;;;;;;5054012;28;20045;-59
2023/08/30 11:38:13;;;;;;;4.38;2.38;;;;;;;;;;5054472;28;20032;-59
2023/08/30 11:40:39;;;;;;;2.40;1.90;;;;;;;;;;5054797;28;20021;-59
2023/08/30 11:43:06;;;;;;;2.30;1.75;;;;;;;;;;5054697;28;20344;-59
2023/08/30 11:45:36;;;;;;;2.33;1.80;;;;;;;;;;5053790;28;20086;-59
2023/08/30 11:48:02;;;;;;;2.25;1.55;;;;;;;;;;5054252;28;20028;-59
2023/08/30 11:50:29;;;;;;;2.75;1.92;;;;;;;;;;5054218;28;20144;-59
2023/08/30 11:52:55;;;;;;;2.40;1.83;;;;;;;;;;5053651;28;20078;-59
2023/08/30 11:55:21;;;;;;;2.97;2.05;;;;;;;;;;5053618;28;20025;-59
2023/08/30 11:57:50;;;;;;;3.30;1.95;;;;;;;;;;5053720;28;20056;-59
2023/08/30 12:00:18;;;;;;;2.80;1.42;;;;;;;;;;5054372;28;20033;-59
2023/08/30 12:02:46;;;;;;;2.22;1.80;;;;;;;;;;5053395;28;20017;-59
2023/08/30 12:05:12;;;;;;;3.13;1.67;;;;;;;;;;5053528;28;20073;-59
2023/08/30 12:07:40;;;;;;;2.80;2.00;;;;;;;;;;5053606;28;20142;-59
2023/08/30 12:10:09;;;;;;;2.63;1.95;;;;;;;;;;5054427;28;20025;-59
2023/08/30 12:12:38;;;;;;;2.60;1.70;;;;;;;;;;5053812;28;20155;-59
2023/08/30 12:15:14;;;;;;;2.40;1.55;;;;;;;;;;5054020;28;20108;-59
2023/08/30 12:17:40;;;;;;;2.15;1.30;;;;;;;;;;5054065;28;20025;-59
2023/08/30 12:20:07;;;;;;;2.60;1.73;;;;;;;;;;5053590;28;20024;-60
2023/08/30 12:22:37;;;;;;;2.25;1.50;;;;;;;;;;5053355;28;20072;-60
2023/08/30 12:25:03;;;;;;;;;;;;;;;;;;5053670;28;20116;-59
2023/08/30 12:27:30;;;;;;;2.20;1.50;;;;;;;;;;5057241;28;19911;-60
2023/08/30 12:29:56;;;;;;;2.35;1.75;;;;;;;;;;5058100;28;20036;-60
2023/08/30 12:32:22;;;;;;;2.70;1.73;;;;;;;;;;5058276;28;20025;-60
2023/08/30 12:34:47;;;;;;;2.75;1.80;;;;;;;;;;5057507;28;20065;-60
2023/08/30 12:37:13;;;;;;;2.72;1.95;;;;;;;;;;5058304;28;20057;-60
2023/08/30 12:39:39;;;;;;;2.10;1.30;;;;;;;;;;5058004;28;20028;-60
2023/08/30 12:42:05;;;;;;;2.17;1.75;;;;;;;;;;5057454;28;20025;-60
2023/08/30 12:44:31;;;;;;;2.28;1.80;;;;;;;;;;5056882;28;20037;-60
2023/08/30 12:46:57;;;;;;;3.30;2.20;;;;;;;;;;5057251;28;20032;-60
2023/08/30 12:49:23;;;;;;;3.17;2.00;;;;;;;;;;5057516;28;20025;-60
2023/08/30 12:51:49;;;;;;;2.45;1.77;;;;;;;;;;5057749;28;20413;-60
2023/08/30 12:54:15;;;;;;;2.67;1.85;;;;;;;;;;5057043;28;20025;-60
2023/08/30 12:56:41;;;;;;;2.70;2.20;;;;;;;;;;5057267;28;20017;-60
2023/08/30 12:59:07;;;;;;;2.50;1.70;;;;;;;;;;5057715;28;20021;-60
2023/08/30 13:01:33;;;;;;;3.22;2.20;;;;;;;;;;5057381;28;20112;-59
2023/08/30 13:03:59;;;;;;;2.70;1.80;;;;;;;;;;5056838;28;20029;-59
2023/08/30 13:06:28;;;;;;;2.40;1.65;;;;;;;;;;5056795;28;20166;-59
2023/08/30 13:08:54;;;;;;;2.97;2.20;;;;;;;;;;5056772;28;20138;-59
2023/08/30 13:11:20;;;;;;;3.13;2.15;;;;;;;;;;5056838;28;20072;-59
2023/08/30 13:13:45;;;;;;;2.90;2.05;;;;;;;;;;5056825;28;20028;-59
2023/08/30 13:16:11;;;;;;;2.42;1.85;;;;;;;;;;5056432;28;20036;-59
2023/08/30 13:18:37;;;;;;;2.78;2.05;;;;;;;;;;5056672;28;20036;-59
2023/08/30 13:21:04;;;;;;;2.90;2.58;;;;;;;;;;5056710;28;20021;-59
2023/08/30 13:23:30;;;;;;;2.92;2.17;;;;;;;;;;5056795;28;20025;-59
2023/08/30 13:25:56;;;;;;;2.80;2.05;;;;;;;;;;5057114;28;20025;-59
2023/08/30 13:28:22;;;;;;;2.60;2.10;;;;;;;;;;5056713;28;20103;-59
2023/08/30 13:30:50;;;;;;;3.65;2.60;;;;;;;;;;5057040;28;20028;-59
2023/08/30 13:33:15;;;;;;;2.40;1.60;;;;;;;;;;5056386;28;20025;-59
2023/08/30 13:35:41;;;;;;;2.50;1.92;;;;;;;;;;5056692;28;20045;-59
2023/08/30 13:38:07;;;;;;;4.53;2.45;;;;;;;;;;5056033;28;20021;-59
2023/08/30 13:40:33;;;;;;;2.35;1.88;;;;;;;;;;5057129;28;20443;-59
2023/08/30 13:42:59;;;;;;;3.05;2.08;;;;;;;;;;5056941;28;20066;-59
2023/08/30 13:45:25;;;;;;;2.67;1.80;;;;;;;;;;5056108;28;20021;-59
2023/08/30 13:47:53;;;;;;;2.40;1.90;;;;;;;;;;5056581;28;20024;-59
2023/08/30 13:50:19;;;;;;;2.47;1.58;;;;;;;;;;5056650;28;20021;-59
2023/08/30 13:52:44;;;;;;;2.53;1.55;;;;;;;;;;5056060;28;20459;-59
2023/08/30 13:55:10;;;;;;;3.30;1.65;;;;;;;;;;5056426;28;20061;-59
2023/08/30 13:57:36;;;;;;;3.10;1.35;;;;;;;;;;5055951;28;20025;-59
2023/08/30 14:00:07;;;;;;;2.05;1.40;;;;;;;;;;5056128;28;20025;-59
2023/08/30 14:02:33;;;;;;;2.15;1.38;;;;;;;;;;5056597;28;20465;-58
2023/08/30 14:04:59;;;;;;;2.22;1.55;;;;;;;;;;5056156;28;20037;-59
2023/08/30 14:07:25;;;;;;;2.25;1.48;;;;;;;;;;5055925;28;20013;-58
2023/08/30 14:09:51;;;;;;;3.40;1.35;;;;;;;;;;5055835;28;20059;-58
2023/08/30 14:12:17;;;;;;;3.33;1.55;;;;;;;;;;5056166;28;20025;-58
2023/08/30 14:14:46;;;;;;;2.13;1.35;;;;;;;;;;5055594;28;20040;-58
2023/08/30 14:17:12;;;;;;;2.47;1.60;;;;;;;;;;5055241;28;20048;-58
2023/08/30 14:19:38;;;;;;;1.85;1.23;;;;;;;;;;5056404;28;20024;-59
2023/08/30 14:22:05;;;;;;;2.58;1.83;;;;;;;;;;5056015;28;20455;-58
2023/08/30 14:24:32;;;;;;;1.98;1.30;;;;;;;;;;5055823;28;20036;-58
2023/08/30 14:26:58;;;;;;;2.58;1.58;;;;;;;;;;5055128;28;20029;-59
2023/08/30 14:29:24;;;;;;;2.63;1.20;;;;;;;;;;5055480;28;20032;-59
2023/08/30 14:31:50;;;;;;;2.10;1.30;;;;;;;;;;5055865;28;20557;-58
2023/08/30 14:34:16;;;;;;;2.40;1.50;;;;;;;;;;5054976;28;20112;-58
2023/08/30 14:36:42;;;;;;;2.22;1.67;;;;;;;;;;5055299;28;20049;-58